Fairhaven, Washington
Current Conditions -  °F | °C
As of 3:53 PM on Wednesday 22 Oct 2014 (Local Time) from KBLI Reporting Station
Overcast Overcast  
Wind Chill: 14°   Ceiling: 3100
Heat Index: 14°   Visibility: 10mi
Dew Point: 10°   Wind: 9mph
Humidity: 75%   Direction: 120°ESE
Pressure: 29.6"   Gusts: NA
Location:  48.7531°N, 122.502°W
Report Text: KBLI 222253Z 12008KT 10SM OVC031 14/10 A2960 RMK AO2 SLP029 T01440100
Loading
Personal Weather Stations






























Interactive Weather Map
Tropical Storm Tracking
New forecast layout! Learn more

10-Day Weather Forecast

Advertisements
Track Severe Weather on mobile